sensor_id;sensor_type;location;lat;lon;timestamp;temperature;humidity
19947;DHT22;10135;50.702;7.276;2022-08-19T00:01:20;23.00;55.80
19947;DHT22;10135;50.702;7.276;2022-08-19T00:03:21;23.10;55.80
19947;DHT22;10135;50.702;7.276;2022-08-19T00:05:22;23.10;55.90
19947;DHT22;10135;50.702;7.276;2022-08-19T00:07:23;23.00;55.80
19947;DHT22;10135;50.702;7.276;2022-08-19T00:09:24;23.00;55.80
19947;DHT22;10135;50.702;7.276;2022-08-19T00:11:26;23.00;55.80
19947;DHT22;10135;50.702;7.276;2022-08-19T00:13:27;22.90;55.80
19947;DHT22;10135;50.702;7.276;2022-08-19T00:15:28;22.90;55.80
19947;DHT22;10135;50.702;7.276;2022-08-19T00:17:29;22.90;55.90
19947;DHT22;10135;50.702;7.276;2022-08-19T00:19:31;22.90;55.90
19947;DHT22;10135;50.702;7.276;2022-08-19T00:21:31;22.90;55.90
19947;DHT22;10135;50.702;7.276;2022-08-19T00:23:32;22.80;55.90
19947;DHT22;10135;50.702;7.276;2022-08-19T00:25:35;22.80;56.00
19947;DHT22;10135;50.702;7.276;2022-08-19T00:27:37;22.80;55.90
19947;DHT22;10135;50.702;7.276;2022-08-19T00:29:38;22.80;56.10
19947;DHT22;10135;50.702;7.276;2022-08-19T00:31:39;22.70;56.00
19947;DHT22;10135;50.702;7.276;2022-08-19T00:33:42;22.70;56.10
19947;DHT22;10135;50.702;7.276;2022-08-19T00:35:43;22.70;56.10
19947;DHT22;10135;50.702;7.276;2022-08-19T00:37:43;22.60;56.20
19947;DHT22;10135;50.702;7.276;2022-08-19T00:39:45;22.70;56.30
19947;DHT22;10135;50.702;7.276;2022-08-19T00:41:47;22.70;56.30
19947;DHT22;10135;50.702;7.276;2022-08-19T00:46:04;22.60;56.70
19947;DHT22;10135;50.702;7.276;2022-08-19T00:48:05;22.60;56.40
19947;DHT22;10135;50.702;7.276;2022-08-19T00:50:08;22.60;56.40
19947;DHT22;10135;50.702;7.276;2022-08-19T00:52:14;22.60;56.50
19947;DHT22;10135;50.702;7.276;2022-08-19T00:54:19;22.60;56.60
19947;DHT22;10135;50.702;7.276;2022-08-19T00:56:21;22.60;56.60
19947;DHT22;10135;50.702;7.276;2022-08-19T00:58:26;22.60;56.60
19947;DHT22;10135;50.702;7.276;2022-08-19T01:00:30;22.60;56.70
19947;DHT22;10135;50.702;7.276;2022-08-19T01:02:32;22.60;56.60
19947;DHT22;10135;50.702;7.276;2022-08-19T01:04:33;22.50;56.60
19947;DHT22;10135;50.702;7.276;2022-08-19T01:06:35;22.60;56.70
19947;DHT22;10135;50.702;7.276;2022-08-19T01:08:38;22.60;56.70
19947;DHT22;10135;50.702;7.276;2022-08-19T01:10:54;22.50;56.70
19947;DHT22;10135;50.702;7.276;2022-08-19T01:12:59;22.60;57.10
19947;DHT22;10135;50.702;7.276;2022-08-19T01:15:01;22.50;56.70
19947;DHT22;10135;50.702;7.276;2022-08-19T01:17:02;22.50;56.70
19947;DHT22;10135;50.702;7.276;2022-08-19T01:19:12;22.50;56.70
19947;DHT22;10135;50.702;7.276;2022-08-19T01:21:42;22.50;57.00
19947;DHT22;10135;50.702;7.276;2022-08-19T01:23:49;22.50;57.10
19947;DHT22;10135;50.702;7.276;2022-08-19T01:25:52;22.50;56.80
19947;DHT22;10135;50.702;7.276;2022-08-19T01:27:53;22.50;56.90
19947;DHT22;10135;50.702;7.276;2022-08-19T01:29:54;22.50;56.90
19947;DHT22;10135;50.702;7.276;2022-08-19T01:31:55;22.50;56.90
19947;DHT22;10135;50.702;7.276;2022-08-19T01:33:56;22.50;57.00
19947;DHT22;10135;50.702;7.276;2022-08-19T01:36:11;22.40;57.00
19947;DHT22;10135;50.702;7.276;2022-08-19T01:38:25;22.40;57.20
19947;DHT22;10135;50.702;7.276;2022-08-19T01:40:30;22.40;57.30
19947;DHT22;10135;50.702;7.276;2022-08-19T01:42:32;22.30;57.10
19947;DHT22;10135;50.702;7.276;2022-08-19T01:44:33;22.30;57.00
19947;DHT22;10135;50.702;7.276;2022-08-19T01:46:36;22.30;57.10
19947;DHT22;10135;50.702;7.276;2022-08-19T01:48:40;22.30;57.10
19947;DHT22;10135;50.702;7.276;2022-08-19T01:50:42;22.30;57.20
19947;DHT22;10135;50.702;7.276;2022-08-19T01:52:44;22.30;57.20
19947;DHT22;10135;50.702;7.276;2022-08-19T01:54:45;22.30;57.90
19947;DHT22;10135;50.702;7.276;2022-08-19T01:56:45;22.30;57.20
19947;DHT22;10135;50.702;7.276;2022-08-19T01:59:02;22.30;57.30
19947;DHT22;10135;50.702;7.276;2022-08-19T02:01:07;22.20;57.50
19947;DHT22;10135;50.702;7.276;2022-08-19T02:03:08;22.20;57.30
19947;DHT22;10135;50.702;7.276;2022-08-19T02:05:10;22.20;57.30
19947;DHT22;10135;50.702;7.276;2022-08-19T02:07:12;22.20;57.40
19947;DHT22;10135;50.702;7.276;2022-08-19T02:09:13;22.20;57.50
19947;DHT22;10135;50.702;7.276;2022-08-19T02:11:25;22.20;57.50
19947;DHT22;10135;50.702;7.276;2022-08-19T02:13:32;22.20;57.90
19947;DHT22;10135;50.702;7.276;2022-08-19T02:15:34;22.20;57.50
19947;DHT22;10135;50.702;7.276;2022-08-19T02:17:35;22.20;57.60
19947;DHT22;10135;50.702;7.276;2022-08-19T02:19:36;22.20;57.60
19947;DHT22;10135;50.702;7.276;2022-08-19T02:21:36;22.20;57.60
19947;DHT22;10135;50.702;7.276;2022-08-19T02:23:37;22.20;57.60
19947;DHT22;10135;50.702;7.276;2022-08-19T02:25:39;22.20;57.60
19947;DHT22;10135;50.702;7.276;2022-08-19T02:27:41;22.20;57.70
19947;DHT22;10135;50.702;7.276;2022-08-19T02:29:43;22.20;57.70
19947;DHT22;10135;50.702;7.276;2022-08-19T02:31:45;22.20;57.70
19947;DHT22;10135;50.702;7.276;2022-08-19T02:33:47;22.20;57.70
19947;DHT22;10135;50.702;7.276;2022-08-19T02:35:48;22.20;57.70
19947;DHT22;10135;50.702;7.276;2022-08-19T02:37:49;22.20;57.70
19947;DHT22;10135;50.702;7.276;2022-08-19T02:40:09;22.10;57.70
19947;DHT22;10135;50.702;7.276;2022-08-19T02:42:10;22.10;57.70
19947;DHT22;10135;50.702;7.276;2022-08-19T02:44:10;22.10;57.80
19947;DHT22;10135;50.702;7.276;2022-08-19T02:46:25;22.10;57.80
19947;DHT22;10135;50.702;7.276;2022-08-19T02:48:27;22.10;58.20
19947;DHT22;10135;50.702;7.276;2022-08-19T02:50:28;22.00;57.80
19947;DHT22;10135;50.702;7.276;2022-08-19T02:52:29;22.00;57.90
19947;DHT22;10135;50.702;7.276;2022-08-19T02:54:29;22.00;57.90
19947;DHT22;10135;50.702;7.276;2022-08-19T02:56:30;22.00;58.00
19947;DHT22;10135;50.702;7.276;2022-08-19T02:58:31;21.90;57.90
19947;DHT22;10135;50.702;7.276;2022-08-19T03:00:32;21.90;58.00
19947;DHT22;10135;50.702;7.276;2022-08-19T03:02:33;21.90;58.00
19947;DHT22;10135;50.702;7.276;2022-08-19T03:04:34;21.90;58.10
19947;DHT22;10135;50.702;7.276;2022-08-19T03:06:39;21.90;58.10
19947;DHT22;10135;50.702;7.276;2022-08-19T03:08:43;21.90;58.30
19947;DHT22;10135;50.702;7.276;2022-08-19T03:10:47;21.90;58.20
19947;DHT22;10135;50.702;7.276;2022-08-19T03:12:48;21.90;58.30
19947;DHT22;10135;50.702;7.276;2022-08-19T03:14:48;21.90;58.30
19947;DHT22;10135;50.702;7.276;2022-08-19T03:16:51;21.90;58.30
19947;DHT22;10135;50.702;7.276;2022-08-19T03:18:52;21.90;58.40
19947;DHT22;10135;50.702;7.276;2022-08-19T03:20:55;21.90;58.30
19947;DHT22;10135;50.702;7.276;2022-08-19T03:22:56;21.90;58.30
19947;DHT22;10135;50.702;7.276;2022-08-19T03:24:58;21.90;58.40
19947;DHT22;10135;50.702;7.276;2022-08-19T03:26:59;21.90;58.40
19947;DHT22;10135;50.702;7.276;2022-08-19T03:29:04;21.80;58.30
19947;DHT22;10135;50.702;7.276;2022-08-19T03:31:10;21.80;58.50
19947;DHT22;10135;50.702;7.276;2022-08-19T03:33:12;21.80;58.50
19947;DHT22;10135;50.702;7.276;2022-08-19T03:35:13;21.80;58.40
19947;DHT22;10135;50.702;7.276;2022-08-19T03:37:14;21.80;58.50
19947;DHT22;10135;50.702;7.276;2022-08-19T03:39:15;21.80;58.50
19947;DHT22;10135;50.702;7.276;2022-08-19T03:41:20;21.80;58.50
19947;DHT22;10135;50.702;7.276;2022-08-19T03:43:23;21.80;58.70
19947;DHT22;10135;50.702;7.276;2022-08-19T03:45:24;21.80;58.60
19947;DHT22;10135;50.702;7.276;2022-08-19T03:47:25;21.80;58.60
19947;DHT22;10135;50.702;7.276;2022-08-19T03:49:28;21.80;58.60
19947;DHT22;10135;50.702;7.276;2022-08-19T03:51:34;21.80;58.70
19947;DHT22;10135;50.702;7.276;2022-08-19T03:53:38;21.80;58.80
19947;DHT22;10135;50.702;7.276;2022-08-19T03:55:40;21.80;58.70
19947;DHT22;10135;50.702;7.276;2022-08-19T03:57:41;21.80;58.80
19947;DHT22;10135;50.702;7.276;2022-08-19T03:59:42;21.80;58.80
19947;DHT22;10135;50.702;7.276;2022-08-19T04:01:43;21.80;58.80
19947;DHT22;10135;50.702;7.276;2022-08-19T04:03:45;21.80;58.80
19947;DHT22;10135;50.702;7.276;2022-08-19T04:05:46;21.80;58.90
19947;DHT22;10135;50.702;7.276;2022-08-19T04:07:47;21.80;58.80
19947;DHT22;10135;50.702;7.276;2022-08-19T04:09:48;21.80;58.80
19947;DHT22;10135;50.702;7.276;2022-08-19T04:11:52;21.80;58.80
19947;DHT22;10135;50.702;7.276;2022-08-19T04:13:55;21.80;58.90
19947;DHT22;10135;50.702;7.276;2022-08-19T04:15:56;21.70;58.80
19947;DHT22;10135;50.702;7.276;2022-08-19T04:17:57;21.70;58.80
19947;DHT22;10135;50.702;7.276;2022-08-19T04:19:57;21.70;58.90
19947;DHT22;10135;50.702;7.276;2022-08-19T04:21:58;21.70;59.00
19947;DHT22;10135;50.702;7.276;2022-08-19T04:23:59;21.70;59.00
19947;DHT22;10135;50.702;7.276;2022-08-19T04:26:00;21.60;59.00
19947;DHT22;10135;50.702;7.276;2022-08-19T04:28:00;21.60;59.00
19947;DHT22;10135;50.702;7.276;2022-08-19T04:30:01;21.60;59.00
19947;DHT22;10135;50.702;7.276;2022-08-19T04:32:03;21.60;59.00
19947;DHT22;10135;50.702;7.276;2022-08-19T04:34:08;21.60;59.10
19947;DHT22;10135;50.702;7.276;2022-08-19T04:36:18;21.60;59.10
19947;DHT22;10135;50.702;7.276;2022-08-19T04:38:23;21.60;59.30
19947;DHT22;10135;50.702;7.276;2022-08-19T04:40:24;21.60;59.10
19947;DHT22;10135;50.702;7.276;2022-08-19T04:42:44;21.60;59.20
19947;DHT22;10135;50.702;7.276;2022-08-19T04:44:44;21.50;59.20
19947;DHT22;10135;50.702;7.276;2022-08-19T04:46:47;21.50;59.20
19947;DHT22;10135;50.702;7.276;2022-08-19T04:48:48;21.50;59.30
19947;DHT22;10135;50.702;7.276;2022-08-19T04:50:49;21.50;59.30
19947;DHT22;10135;50.702;7.276;2022-08-19T04:52:51;21.60;59.40
19947;DHT22;10135;50.702;7.276;2022-08-19T04:54:53;21.50;59.40
19947;DHT22;10135;50.702;7.276;2022-08-19T04:56:55;21.60;59.50
19947;DHT22;10135;50.702;7.276;2022-08-19T04:58:56;21.60;59.50
19947;DHT22;10135;50.702;7.276;2022-08-19T05:00:57;21.60;59.60
19947;DHT22;10135;50.702;7.276;2022-08-19T05:03:00;21.60;59.60
19947;DHT22;10135;50.702;7.276;2022-08-19T05:05:01;21.60;59.60
19947;DHT22;10135;50.702;7.276;2022-08-19T05:07:02;21.60;59.60
19947;DHT22;10135;50.702;7.276;2022-08-19T05:09:04;21.60;59.60
19947;DHT22;10135;50.702;7.276;2022-08-19T05:11:20;21.60;59.60
19947;DHT22;10135;50.702;7.276;2022-08-19T05:13:29;21.60;59.80
19947;DHT22;10135;50.702;7.276;2022-08-19T05:15:30;21.60;59.60
19947;DHT22;10135;50.702;7.276;2022-08-19T05:17:31;21.60;59.60
19947;DHT22;10135;50.702;7.276;2022-08-19T05:19:32;21.60;59.70
19947;DHT22;10135;50.702;7.276;2022-08-19T05:21:51;21.60;59.70
19947;DHT22;10135;50.702;7.276;2022-08-19T05:24:11;21.60;59.80
19947;DHT22;10135;50.702;7.276;2022-08-19T05:26:12;21.60;59.90
19947;DHT22;10135;50.702;7.276;2022-08-19T05:28:13;21.70;60.00
19947;DHT22;10135;50.702;7.276;2022-08-19T05:30:14;21.70;60.00
19947;DHT22;10135;50.702;7.276;2022-08-19T05:32:15;21.70;60.10
19947;DHT22;10135;50.702;7.276;2022-08-19T05:34:17;21.70;60.10
19947;DHT22;10135;50.702;7.276;2022-08-19T05:36:21;21.80;60.30
19947;DHT22;10135;50.702;7.276;2022-08-19T05:38:22;21.80;60.10
19947;DHT22;10135;50.702;7.276;2022-08-19T05:40:23;21.90;60.30
19947;DHT22;10135;50.702;7.276;2022-08-19T05:42:24;21.90;60.20
19947;DHT22;10135;50.702;7.276;2022-08-19T05:44:28;21.90;60.30
19947;DHT22;10135;50.702;7.276;2022-08-19T05:46:32;21.90;60.30
19947;DHT22;10135;50.702;7.276;2022-08-19T05:48:33;22.00;60.30
19947;DHT22;10135;50.702;7.276;2022-08-19T05:50:35;22.00;60.30
19947;DHT22;10135;50.702;7.276;2022-08-19T05:52:37;22.10;60.40
19947;DHT22;10135;50.702;7.276;2022-08-19T05:54:39;22.10;60.30
19947;DHT22;10135;50.702;7.276;2022-08-19T05:56:42;22.10;60.30
19947;DHT22;10135;50.702;7.276;2022-08-19T05:58:44;22.10;60.30
19947;DHT22;10135;50.702;7.276;2022-08-19T06:00:45;22.20;61.20
19947;DHT22;10135;50.702;7.276;2022-08-19T06:02:46;22.20;60.40
19947;DHT22;10135;50.702;7.276;2022-08-19T06:04:47;22.20;60.40
19947;DHT22;10135;50.702;7.276;2022-08-19T06:06:50;22.30;60.50
19947;DHT22;10135;50.702;7.276;2022-08-19T06:08:52;22.30;60.50
19947;DHT22;10135;50.702;7.276;2022-08-19T06:10:53;22.30;60.40
19947;DHT22;10135;50.702;7.276;2022-08-19T06:12:54;22.40;60.50
19947;DHT22;10135;50.702;7.276;2022-08-19T06:14:56;22.40;60.50
19947;DHT22;10135;50.702;7.276;2022-08-19T06:16:57;22.40;60.40
19947;DHT22;10135;50.702;7.276;2022-08-19T06:19:09;22.50;60.50
19947;DHT22;10135;50.702;7.276;2022-08-19T06:21:14;22.50;60.60
19947;DHT22;10135;50.702;7.276;2022-08-19T06:23:15;22.50;60.40
19947;DHT22;10135;50.702;7.276;2022-08-19T06:25:16;22.50;60.40
19947;DHT22;10135;50.702;7.276;2022-08-19T06:27:18;22.50;60.40
19947;DHT22;10135;50.702;7.276;2022-08-19T06:29:22;22.50;60.50
19947;DHT22;10135;50.702;7.276;2022-08-19T06:31:27;22.50;60.60
19947;DHT22;10135;50.702;7.276;2022-08-19T06:33:29;22.60;60.60
19947;DHT22;10135;50.702;7.276;2022-08-19T06:35:30;22.60;60.60
19947;DHT22;10135;50.702;7.276;2022-08-19T06:37:30;22.60;60.60
19947;DHT22;10135;50.702;7.276;2022-08-19T06:39:36;22.60;60.70
19947;DHT22;10135;50.702;7.276;2022-08-19T06:41:41;22.60;60.80
19947;DHT22;10135;50.702;7.276;2022-08-19T06:43:44;22.60;60.90
19947;DHT22;10135;50.702;7.276;2022-08-19T06:45:44;22.70;60.90
19947;DHT22;10135;50.702;7.276;2022-08-19T06:47:46;22.70;60.90
19947;DHT22;10135;50.702;7.276;2022-08-19T06:49:48;22.70;60.90
19947;DHT22;10135;50.702;7.276;2022-08-19T06:51:50;22.70;60.90
19947;DHT22;10135;50.702;7.276;2022-08-19T06:53:53;22.70;60.90
19947;DHT22;10135;50.702;7.276;2022-08-19T06:55:55;22.70;61.10
19947;DHT22;10135;50.702;7.276;2022-08-19T06:58:04;22.80;60.90
19947;DHT22;10135;50.702;7.276;2022-08-19T07:00:05;22.80;61.10
19947;DHT22;10135;50.702;7.276;2022-08-19T07:02:10;22.80;60.90
19947;DHT22;10135;50.702;7.276;2022-08-19T07:04:11;22.80;60.90
19947;DHT22;10135;50.702;7.276;2022-08-19T07:06:15;22.90;61.10
19947;DHT22;10135;50.702;7.276;2022-08-19T07:08:17;22.90;61.10
19947;DHT22;10135;50.702;7.276;2022-08-19T07:10:18;22.90;61.10
19947;DHT22;10135;50.702;7.276;2022-08-19T07:12:19;22.90;61.10
19947;DHT22;10135;50.702;7.276;2022-08-19T07:14:23;22.90;61.10
19947;DHT22;10135;50.702;7.276;2022-08-19T07:16:26;22.90;61.20
19947;DHT22;10135;50.702;7.276;2022-08-19T07:18:27;23.00;61.30
19947;DHT22;10135;50.702;7.276;2022-08-19T07:20:28;23.00;61.30
19947;DHT22;10135;50.702;7.276;2022-08-19T07:22:29;23.00;61.30
19947;DHT22;10135;50.702;7.276;2022-08-19T07:24:31;23.00;61.30
19947;DHT22;10135;50.702;7.276;2022-08-19T07:26:38;23.10;61.50
19947;DHT22;10135;50.702;7.276;2022-08-19T07:28:41;23.10;61.70
19947;DHT22;10135;50.702;7.276;2022-08-19T07:30:43;23.20;61.50
19947;DHT22;10135;50.702;7.276;2022-08-19T07:32:44;23.20;61.50
19947;DHT22;10135;50.702;7.276;2022-08-19T07:34:44;23.20;61.50
19947;DHT22;10135;50.702;7.276;2022-08-19T07:36:45;23.30;61.50
19947;DHT22;10135;50.702;7.276;2022-08-19T07:38:48;23.30;61.40
19947;DHT22;10135;50.702;7.276;2022-08-19T07:40:50;23.40;61.50
19947;DHT22;10135;50.702;7.276;2022-08-19T07:42:51;23.40;61.40
19947;DHT22;10135;50.702;7.276;2022-08-19T07:44:52;23.50;61.50
19947;DHT22;10135;50.702;7.276;2022-08-19T07:46:55;23.50;61.50
19947;DHT22;10135;50.702;7.276;2022-08-19T07:48:57;23.50;61.50
19947;DHT22;10135;50.702;7.276;2022-08-19T07:51:01;23.60;61.50
19947;DHT22;10135;50.702;7.276;2022-08-19T07:53:03;23.60;61.50
19947;DHT22;10135;50.702;7.276;2022-08-19T07:55:06;23.70;61.40
19947;DHT22;10135;50.702;7.276;2022-08-19T07:57:08;23.70;61.30
19947;DHT22;10135;50.702;7.276;2022-08-19T07:59:09;23.70;61.30
19947;DHT22;10135;50.702;7.276;2022-08-19T08:01:16;23.80;61.30
19947;DHT22;10135;50.702;7.276;2022-08-19T08:03:21;23.80;61.50
19947;DHT22;10135;50.702;7.276;2022-08-19T08:05:43;23.90;61.30
19947;DHT22;10135;50.702;7.276;2022-08-19T08:08:03;23.90;61.30
19947;DHT22;10135;50.702;7.276;2022-08-19T08:10:22;23.90;61.20
19947;DHT22;10135;50.702;7.276;2022-08-19T08:12:26;24.00;61.20
19947;DHT22;10135;50.702;7.276;2022-08-19T08:14:35;24.00;61.20
19947;DHT22;10135;50.702;7.276;2022-08-19T08:16:39;24.10;61.20
19947;DHT22;10135;50.702;7.276;2022-08-19T08:18:39;24.10;61.00
19947;DHT22;10135;50.702;7.276;2022-08-19T08:20:42;24.10;61.00
19947;DHT22;10135;50.702;7.276;2022-08-19T08:22:44;24.10;61.00
19947;DHT22;10135;50.702;7.276;2022-08-19T08:25:12;24.10;61.00
19947;DHT22;10135;50.702;7.276;2022-08-19T08:27:15;24.20;61.10
19947;DHT22;10135;50.702;7.276;2022-08-19T08:29:16;24.20;61.00
19947;DHT22;10135;50.702;7.276;2022-08-19T08:31:17;24.30;61.00
19947;DHT22;10135;50.702;7.276;2022-08-19T08:33:21;24.30;60.90
19947;DHT22;10135;50.702;7.276;2022-08-19T08:35:24;24.30;60.80
19947;DHT22;10135;50.702;7.276;2022-08-19T08:37:25;24.40;60.70
19947;DHT22;10135;50.702;7.276;2022-08-19T08:39:25;24.40;60.70
19947;DHT22;10135;50.702;7.276;2022-08-19T08:44:03;24.40;60.70
19947;DHT22;10135;50.702;7.276;2022-08-19T08:46:13;24.50;60.60
19947;DHT22;10135;50.702;7.276;2022-08-19T08:48:50;24.50;60.60
19947;DHT22;10135;50.702;7.276;2022-08-19T08:50:56;24.60;60.50
19947;DHT22;10135;50.702;7.276;2022-08-19T08:52:59;24.60;60.50
19947;DHT22;10135;50.702;7.276;2022-08-19T08:55:04;24.60;60.50
19947;DHT22;10135;50.702;7.276;2022-08-19T08:57:19;24.70;60.30
19947;DHT22;10135;50.702;7.276;2022-08-19T08:59:35;24.80;60.30
19947;DHT22;10135;50.702;7.276;2022-08-19T09:01:39;24.80;60.10
19947;DHT22;10135;50.702;7.276;2022-08-19T09:03:42;24.80;60.10
19947;DHT22;10135;50.702;7.276;2022-08-19T09:10:53;24.90;59.80
19947;DHT22;10135;50.702;7.276;2022-08-19T09:15:34;25.00;59.80
19947;DHT22;10135;50.702;7.276;2022-08-19T09:17:39;25.10;59.70
19947;DHT22;10135;50.702;7.276;2022-08-19T09:21:52;25.10;59.50
19947;DHT22;10135;50.702;7.276;2022-08-19T09:23:53;25.20;59.70
19947;DHT22;10135;50.702;7.276;2022-08-19T09:25:53;25.30;59.60
19947;DHT22;10135;50.702;7.276;2022-08-19T09:27:54;25.30;59.60
19947;DHT22;10135;50.702;7.276;2022-08-19T09:29:57;25.30;59.50
19947;DHT22;10135;50.702;7.276;2022-08-19T09:31:58;25.30;59.40
19947;DHT22;10135;50.702;7.276;2022-08-19T09:33:59;25.30;59.30
19947;DHT22;10135;50.702;7.276;2022-08-19T09:36:06;25.40;59.40
19947;DHT22;10135;50.702;7.276;2022-08-19T09:38:08;25.40;59.10
19947;DHT22;10135;50.702;7.276;2022-08-19T09:40:09;25.50;59.30
19947;DHT22;10135;50.702;7.276;2022-08-19T09:42:11;25.50;59.30
19947;DHT22;10135;50.702;7.276;2022-08-19T09:44:13;25.60;59.30
19947;DHT22;10135;50.702;7.276;2022-08-19T09:46:14;25.60;59.20
19947;DHT22;10135;50.702;7.276;2022-08-19T09:48:17;25.60;59.10
19947;DHT22;10135;50.702;7.276;2022-08-19T09:50:17;25.70;59.10
19947;DHT22;10135;50.702;7.276;2022-08-19T09:52:18;25.70;59.00
19947;DHT22;10135;50.702;7.276;2022-08-19T09:54:19;25.80;59.00
19947;DHT22;10135;50.702;7.276;2022-08-19T09:56:21;25.80;58.80
19947;DHT22;10135;50.702;7.276;2022-08-19T09:58:22;25.80;58.70
19947;DHT22;10135;50.702;7.276;2022-08-19T10:00:28;25.80;58.70
19947;DHT22;10135;50.702;7.276;2022-08-19T10:02:31;25.80;58.60
19947;DHT22;10135;50.702;7.276;2022-08-19T10:04:31;25.80;58.60
19947;DHT22;10135;50.702;7.276;2022-08-19T10:06:50;25.90;58.60
19947;DHT22;10135;50.702;7.276;2022-08-19T10:08:52;25.90;58.50
19947;DHT22;10135;50.702;7.276;2022-08-19T10:10:54;25.90;58.50
19947;DHT22;10135;50.702;7.276;2022-08-19T10:12:55;25.90;58.40
19947;DHT22;10135;50.702;7.276;2022-08-19T10:14:56;25.90;58.50
19947;DHT22;10135;50.702;7.276;2022-08-19T10:16:57;25.90;58.50
19947;DHT22;10135;50.702;7.276;2022-08-19T10:18:58;26.00;58.50
19947;DHT22;10135;50.702;7.276;2022-08-19T10:21:24;26.00;58.40
19947;DHT22;10135;50.702;7.276;2022-08-19T10:23:27;26.10;58.70
19947;DHT22;10135;50.702;7.276;2022-08-19T10:25:29;26.10;58.30
19947;DHT22;10135;50.702;7.276;2022-08-19T10:27:34;26.20;58.20
19947;DHT22;10135;50.702;7.276;2022-08-19T10:29:35;26.20;58.20
19947;DHT22;10135;50.702;7.276;2022-08-19T10:31:36;26.20;58.00
19947;DHT22;10135;50.702;7.276;2022-08-19T10:33:38;26.30;58.10
19947;DHT22;10135;50.702;7.276;2022-08-19T10:35:39;26.30;58.10
19947;DHT22;10135;50.702;7.276;2022-08-19T10:37:40;26.40;58.10
19947;DHT22;10135;50.702;7.276;2022-08-19T10:39:40;26.40;58.00
19947;DHT22;10135;50.702;7.276;2022-08-19T10:41:41;26.50;58.00
19947;DHT22;10135;50.702;7.276;2022-08-19T10:43:44;26.50;57.70
19947;DHT22;10135;50.702;7.276;2022-08-19T10:45:52;26.60;57.70
19947;DHT22;10135;50.702;7.276;2022-08-19T10:47:56;26.70;57.20
19947;DHT22;10135;50.702;7.276;2022-08-19T10:49:57;26.80;57.50
19947;DHT22;10135;50.702;7.276;2022-08-19T10:52:15;26.80;57.30
19947;DHT22;10135;50.702;7.276;2022-08-19T10:54:34;26.80;57.20
19947;DHT22;10135;50.702;7.276;2022-08-19T10:56:53;26.90;57.30
19947;DHT22;10135;50.702;7.276;2022-08-19T10:58:55;26.90;57.10
19947;DHT22;10135;50.702;7.276;2022-08-19T11:00:58;26.90;56.90
19947;DHT22;10135;50.702;7.276;2022-08-19T11:02:59;27.00;56.90
19947;DHT22;10135;50.702;7.276;2022-08-19T11:05:00;27.00;56.90
19947;DHT22;10135;50.702;7.276;2022-08-19T11:07:00;27.00;56.90
19947;DHT22;10135;50.702;7.276;2022-08-19T11:09:03;27.10;56.90
19947;DHT22;10135;50.702;7.276;2022-08-19T11:11:06;27.10;56.70
19947;DHT22;10135;50.702;7.276;2022-08-19T11:13:08;27.20;56.50
19947;DHT22;10135;50.702;7.276;2022-08-19T11:15:09;27.20;56.40
19947;DHT22;10135;50.702;7.276;2022-08-19T11:17:11;27.20;56.20
19947;DHT22;10135;50.702;7.276;2022-08-19T11:19:14;27.20;56.20
19947;DHT22;10135;50.702;7.276;2022-08-19T11:21:29;27.20;56.70
19947;DHT22;10135;50.702;7.276;2022-08-19T11:23:32;27.20;55.60
19947;DHT22;10135;50.702;7.276;2022-08-19T11:25:33;27.20;56.00
19947;DHT22;10135;50.702;7.276;2022-08-19T11:27:38;27.20;55.90
19947;DHT22;10135;50.702;7.276;2022-08-19T11:29:43;27.30;55.70
19947;DHT22;10135;50.702;7.276;2022-08-19T11:31:47;27.30;55.70
19947;DHT22;10135;50.702;7.276;2022-08-19T11:33:49;27.30;55.40
19947;DHT22;10135;50.702;7.276;2022-08-19T11:35:53;27.30;55.60
19947;DHT22;10135;50.702;7.276;2022-08-19T11:37:54;27.40;55.50
19947;DHT22;10135;50.702;7.276;2022-08-19T11:39:56;27.40;55.40
19947;DHT22;10135;50.702;7.276;2022-08-19T11:42:00;27.50;55.40
19947;DHT22;10135;50.702;7.276;2022-08-19T11:44:21;27.60;55.00
19947;DHT22;10135;50.702;7.276;2022-08-19T11:46:27;27.70;55.30
19947;DHT22;10135;50.702;7.276;2022-08-19T11:48:29;27.70;55.00
19947;DHT22;10135;50.702;7.276;2022-08-19T11:50:30;27.70;55.00
19947;DHT22;10135;50.702;7.276;2022-08-19T11:52:31;27.80;54.90
19947;DHT22;10135;50.702;7.276;2022-08-19T11:54:31;27.80;54.80
19947;DHT22;10135;50.702;7.276;2022-08-19T11:56:32;27.80;54.60
19947;DHT22;10135;50.702;7.276;2022-08-19T11:58:33;27.80;54.60
19947;DHT22;10135;50.702;7.276;2022-08-19T12:00:35;27.80;54.50
19947;DHT22;10135;50.702;7.276;2022-08-19T12:02:36;27.90;54.50
19947;DHT22;10135;50.702;7.276;2022-08-19T12:04:37;27.90;54.40
19947;DHT22;10135;50.702;7.276;2022-08-19T12:06:40;27.90;54.20
19947;DHT22;10135;50.702;7.276;2022-08-19T12:08:42;28.00;54.00
19947;DHT22;10135;50.702;7.276;2022-08-19T12:10:44;28.00;54.00
19947;DHT22;10135;50.702;7.276;2022-08-19T12:12:48;28.00;53.90
19947;DHT22;10135;50.702;7.276;2022-08-19T12:14:49;28.00;53.80
19947;DHT22;10135;50.702;7.276;2022-08-19T12:16:51;28.00;53.80
19947;DHT22;10135;50.702;7.276;2022-08-19T12:18:51;28.00;53.80
19947;DHT22;10135;50.702;7.276;2022-08-19T12:20:53;28.10;53.60
19947;DHT22;10135;50.702;7.276;2022-08-19T12:22:57;28.20;53.50
19947;DHT22;10135;50.702;7.276;2022-08-19T12:24:57;28.20;53.40
19947;DHT22;10135;50.702;7.276;2022-08-19T12:26:59;28.30;53.30
19947;DHT22;10135;50.702;7.276;2022-08-19T12:29:02;28.40;53.20
19947;DHT22;10135;50.702;7.276;2022-08-19T12:31:04;28.40;53.00
19947;DHT22;10135;50.702;7.276;2022-08-19T12:33:05;28.50;52.90
19947;DHT22;10135;50.702;7.276;2022-08-19T12:35:07;28.50;53.40
19947;DHT22;10135;50.702;7.276;2022-08-19T12:37:09;28.50;52.70
19947;DHT22;10135;50.702;7.276;2022-08-19T12:39:11;28.50;52.50
19947;DHT22;10135;50.702;7.276;2022-08-19T12:41:14;28.50;52.60
19947;DHT22;10135;50.702;7.276;2022-08-19T12:43:18;28.50;52.40
19947;DHT22;10135;50.702;7.276;2022-08-19T12:45:20;28.50;52.50
19947;DHT22;10135;50.702;7.276;2022-08-19T12:47:22;28.50;52.40
19947;DHT22;10135;50.702;7.276;2022-08-19T12:49:23;28.50;52.40
19947;DHT22;10135;50.702;7.276;2022-08-19T12:51:25;28.60;52.40
19947;DHT22;10135;50.702;7.276;2022-08-19T12:53:27;28.70;52.30
19947;DHT22;10135;50.702;7.276;2022-08-19T12:55:29;28.70;52.10
19947;DHT22;10135;50.702;7.276;2022-08-19T12:57:30;28.80;52.10
19947;DHT22;10135;50.702;7.276;2022-08-19T12:59:34;28.80;51.90
19947;DHT22;10135;50.702;7.276;2022-08-19T13:01:36;28.80;51.60
19947;DHT22;10135;50.702;7.276;2022-08-19T13:03:38;28.90;51.70
19947;DHT22;10135;50.702;7.276;2022-08-19T13:05:39;29.00;51.40
19947;DHT22;10135;50.702;7.276;2022-08-19T13:07:41;29.00;51.20
19947;DHT22;10135;50.702;7.276;2022-08-19T13:09:43;29.00;51.10
19947;DHT22;10135;50.702;7.276;2022-08-19T13:11:44;29.10;50.90
19947;DHT22;10135;50.702;7.276;2022-08-19T13:13:47;29.10;50.80